Time;durP1;ratioP1;P1;durP2;ratioP2;P2;SDS_P1;SDS_P2;PMS_P1;PMS_P2;Temp;Humidity;BMP_temperature;BMP_pressure;BME280_temperature;BME280_humidity;BME280_pressure;Samples;Min_cycle;Max_cycle;Signal;HPM_P1;HPM_P2
2023/10/04 00:00:59;;;;;;;4.78;2.25;;;;;;;8.60;100.00;95079.50;5048446;28;20041;-60
2023/10/04 00:03:27;;;;;;;4.75;2.30;;;;;;;8.53;100.00;95079.41;5049323;28;20247;-60
2023/10/04 00:05:54;;;;;;;4.97;2.27;;;;;;;8.58;100.00;95079.09;5048651;28;20047;-59
2023/10/04 00:08:23;;;;;;;5.63;2.40;;;;;;;8.61;100.00;95070.13;5048942;28;20037;-60
2023/10/04 00:10:50;;;;;;;5.22;2.50;;;;;;;8.66;100.00;95082.69;5048428;28;20691;-58
2023/10/04 00:13:16;;;;;;;5.55;2.40;;;;;;;8.63;100.00;95072.47;5048609;28;20041;-59
2023/10/04 00:15:43;;;;;;;4.63;2.25;;;;;;;8.65;100.00;95076.41;5049172;28;20040;-59
2023/10/04 00:18:10;;;;;;;4.00;2.00;;;;;;;8.75;100.00;95075.75;5048341;28;20045;-59
2023/10/04 00:20:38;;;;;;;3.60;1.70;;;;;;;8.82;100.00;95077.00;5049081;28;20456;-59
2023/10/04 00:23:05;;;;;;;5.07;1.83;;;;;;;8.88;100.00;95075.50;5048125;28;20053;-59
2023/10/04 00:25:33;;;;;;;5.00;1.92;;;;;;;8.87;100.00;95079.38;5048973;28;20491;-59
2023/10/04 00:28:02;;;;;;;4.45;1.70;;;;;;;8.95;100.00;95076.34;5048184;28;20049;-59
2023/10/04 00:30:30;;;;;;;5.50;2.30;;;;;;;9.03;100.00;95082.66;5048979;28;20043;-59
2023/10/04 00:32:58;;;;;;;3.80;2.00;;;;;;;8.99;100.00;95079.91;5048152;28;20715;-59
2023/10/04 00:35:26;;;;;;;4.72;2.22;;;;;;;9.09;100.00;95080.38;5048907;28;20067;-59
2023/10/04 00:37:56;;;;;;;4.15;1.80;;;;;;;9.05;100.00;95083.06;5048030;28;20048;-58
2023/10/04 00:40:28;;;;;;;5.45;2.05;;;;;;;9.16;100.00;95074.97;5047904;28;20419;-58
2023/10/04 00:42:56;;;;;;;4.57;1.83;;;;;;;9.19;100.00;95072.28;5056237;28;20102;-59
2023/10/04 00:45:24;;;;;;;3.95;2.03;;;;;;;9.25;100.00;95077.38;5048743;28;20047;-59
2023/10/04 00:47:57;;;;;;;5.80;2.00;;;;;;;9.28;100.00;95066.47;5048312;28;20632;-59
2023/10/04 00:50:29;;;;;;;4.00;2.08;;;;;;;9.30;100.00;95066.09;5047691;28;20761;-58
2023/10/04 00:53:01;;;;;;;4.35;1.85;;;;;;;9.29;100.00;95062.53;5056338;28;20078;-58
2023/10/04 00:55:29;;;;;;;4.90;1.90;;;;;;;9.11;100.00;95062.41;5048761;28;20045;-59
2023/10/04 00:57:57;;;;;;;4.45;1.95;;;;;;;8.90;100.00;95060.25;5047659;28;20039;-58
2023/10/04 01:00:25;;;;;;;4.95;2.20;;;;;;;8.15;100.00;95062.94;5048813;28;20401;-59
2023/10/04 01:02:52;;;;;;;4.78;2.10;;;;;;;8.07;100.00;95057.72;5047838;28;20119;-57
2023/10/04 01:05:24;;;;;;;4.68;2.15;;;;;;;8.36;100.00;95061.63;5048691;28;20379;-58
2023/10/04 01:07:55;;;;;;;4.13;2.20;;;;;;;8.44;100.00;95055.09;5048511;28;20041;-58
2023/10/04 01:10:27;;;;;;;4.65;1.83;;;;;;;8.48;100.00;95044.19;5067603;28;20406;-59
2023/10/04 01:12:55;;;;;;;4.75;2.22;;;;;;;8.48;100.00;95044.97;5067694;28;20051;-58
2023/10/04 01:15:32;;;;;;;4.95;2.10;;;;;;;8.48;100.00;95044.97;5068193;28;20106;-59
2023/10/04 01:18:00;;;;;;;4.95;1.98;;;;;;;8.31;100.00;95048.25;5067859;28;20051;-59
2023/10/04 01:20:29;;;;;;;4.40;2.00;;;;;;;8.15;100.00;95043.78;5068601;28;20512;-59
2023/10/04 01:23:05;;;;;;;4.13;1.90;;;;;;;8.16;100.00;95047.31;5071200;28;20037;-59
2023/10/04 01:25:37;;;;;;;5.05;2.10;;;;;;;8.12;100.00;95036.31;5072269;28;20045;-59
2023/10/04 01:28:12;;;;;;;3.70;1.90;;;;;;;8.11;100.00;95033.94;5071455;28;20416;-59
2023/10/04 01:30:43;;;;;;;3.92;1.85;;;;;;;8.13;100.00;95034.38;5072280;28;20045;-59
2023/10/04 01:33:15;;;;;;;3.97;1.87;;;;;;;8.13;100.00;95040.66;5071251;28;20049;-59
2023/10/04 01:35:45;;;;;;;4.80;2.00;;;;;;;8.07;100.00;95035.84;5072028;28;20043;-59
2023/10/04 01:38:13;;;;;;;5.13;2.10;;;;;;;8.13;100.00;95032.44;5070616;28;20040;-59
2023/10/04 01:40:43;;;;;;;7.38;2.20;;;;;;;8.13;100.00;95024.25;5071995;28;20037;-59
2023/10/04 01:43:15;;;;;;;4.53;1.90;;;;;;;8.18;100.00;95031.31;5070944;28;20055;-59
2023/10/04 01:45:44;;;;;;;10.13;5.70;;;;;;;8.31;100.00;95032.66;5071979;28;20043;-59
2023/10/04 01:48:11;;;;;;;32.80;14.57;;;;;;;8.38;100.00;95026.47;5080656;28;20077;-59
2023/10/04 01:50:44;;;;;;;12.38;4.40;;;;;;;8.38;100.00;95042.88;5072373;28;20036;-59
2023/10/04 01:53:12;;;;;;;13.75;3.10;;;;;;;8.29;100.00;95047.84;5070986;28;20051;-59
2023/10/04 01:55:40;;;;;;;30.85;4.03;;;;;;;8.15;100.00;95049.25;5071693;28;20037;-59
2023/10/04 01:58:08;;;;;;;38.17;3.27;;;;;;;8.23;100.00;95046.59;5070862;28;20036;-59
2023/10/04 02:00:35;;;;;;;10.95;3.10;;;;;;;8.33;100.00;95049.47;5071504;28;20040;-59
2023/10/04 02:03:02;;;;;;;13.20;3.42;;;;;;;8.45;100.00;95051.22;5085599;28;20044;-59
2023/10/04 02:05:32;;;;;;;23.10;3.28;;;;;;;8.47;100.00;95048.88;5091582;28;20036;-59
2023/10/04 02:07:59;;;;;;;26.63;3.10;;;;;;;8.46;100.00;95047.28;5090860;28;20032;-60
2023/10/04 02:10:28;;;;;;;24.03;3.20;;;;;;;8.50;100.00;95050.84;5091621;28;20040;-59
2023/10/04 02:12:55;;;;;;;41.72;2.90;;;;;;;8.46;100.00;95049.25;5091277;28;20040;-59
2023/10/04 02:15:22;;;;;;;101.85;4.78;;;;;;;8.50;100.00;95044.59;5091584;28;20382;-59
2023/10/04 02:17:53;;;;;;;49.90;3.30;;;;;;;8.49;100.00;95043.81;5091546;28;20048;-59
2023/10/04 02:20:24;;;;;;;16.40;2.50;;;;;;;8.49;100.00;95043.00;5090326;28;20788;-59
2023/10/04 02:22:51;;;;;;;43.00;3.00;;;;;;;8.42;100.00;95043.75;5091600;28;20044;-59
2023/10/04 02:25:19;;;;;;;73.45;4.15;;;;;;;8.37;100.00;95054.97;5069971;28;21589;-59
2023/10/04 02:27:49;;;;;;;18.20;2.50;;;;;;;8.36;100.00;95042.47;5064355;28;20049;-59
2023/10/04 02:30:19;;;;;;;25.85;2.30;;;;;;;8.32;100.00;95052.56;5049996;28;20037;-59
2023/10/04 02:32:45;;;;;;;23.65;2.90;;;;;;;8.16;100.00;95044.56;5050778;28;20529;-59
2023/10/04 02:35:21;;;;;;;50.97;3.60;;;;;;;8.15;100.00;95052.00;5050274;28;20061;-59
2023/10/04 02:37:54;;;;;;;33.75;13.82;;;;;;;8.19;100.00;95050.09;5050983;28;20041;-59
2023/10/04 02:40:22;;;;;;;32.85;7.97;;;;;;;8.23;100.00;95063.00;5049815;28;20737;-59
2023/10/04 02:42:49;;;;;;;25.17;5.80;;;;;;;8.26;100.00;95060.31;5050879;28;20090;-59
2023/10/04 02:45:19;;;;;;;28.60;3.88;;;;;;;8.27;100.00;95061.09;5049969;28;20041;-59
2023/10/04 02:47:49;;;;;;;14.23;2.97;;;;;;;8.27;100.00;95066.56;5050807;28;20041;-59
2023/10/04 02:50:17;;;;;;;32.13;3.10;;;;;;;8.23;100.00;95057.53;5049938;28;20409;-59
2023/10/04 02:52:45;;;;;;;8.00;2.63;;;;;;;8.17;100.00;95057.09;5049256;28;20045;-59
2023/10/04 02:55:17;;;;;;;19.42;2.50;;;;;;;8.08;100.00;95054.63;5049694;28;20037;-59
2023/10/04 02:57:46;;;;;;;17.95;2.20;;;;;;;7.96;100.00;95054.88;5060827;28;20043;-59
2023/10/04 03:00:17;;;;;;;49.50;5.07;;;;;;;7.95;100.00;95061.50;5069676;28;20052;-59
2023/10/04 03:02:46;;;;;;;30.95;2.95;;;;;;;7.94;100.00;95057.19;5070462;28;20042;-59
2023/10/04 03:05:14;;;;;;;22.63;2.47;;;;;;;7.94;100.00;95060.69;5068466;28;20070;-59
2023/10/04 03:07:43;;;;;;;19.58;1.95;;;;;;;7.88;100.00;95064.13;5070326;28;20101;-59
2023/10/04 03:10:11;;;;;;;10.70;2.22;;;;;;;7.80;100.00;95061.28;5069272;28;20045;-59
2023/10/04 03:12:38;;;;;;;20.23;2.23;;;;;;;7.82;100.00;95069.13;5068995;28;20036;-59
2023/10/04 03:15:06;;;;;;;53.78;3.17;;;;;;;7.73;100.00;95068.63;5069313;28;20063;-59
2023/10/04 03:17:33;;;;;;;10.63;2.08;;;;;;;7.74;100.00;95060.03;5070218;28;20047;-59
2023/10/04 03:20:01;;;;;;;9.35;1.88;;;;;;;7.77;100.00;95078.44;5069350;28;20045;-58
2023/10/04 03:22:28;;;;;;;4.90;2.17;;;;;;;7.83;100.00;95072.63;5069891;28;20086;-59
2023/10/04 03:24:55;;;;;;;50.60;17.90;;;;;;;7.92;100.00;95073.16;5069521;28;20059;-59
2023/10/04 03:27:24;;;;;;;18.63;6.03;;;;;;;7.96;100.00;95071.28;5066057;28;20036;-59
2023/10/04 03:29:55;;;;;;;47.63;3.97;;;;;;;7.84;100.00;95072.28;5050000;28;20037;-59
2023/10/04 03:32:22;;;;;;;11.52;2.30;;;;;;;7.91;100.00;95068.88;5068813;28;20752;-59
2023/10/04 03:34:49;;;;;;;12.23;1.90;;;;;;;7.89;100.00;95074.69;5069600;28;20591;-59
2023/10/04 03:37:22;;;;;;;58.90;4.10;;;;;;;7.81;100.00;95081.22;5069083;28;20493;-59
2023/10/04 03:39:54;;;;;;;10.02;2.15;;;;;;;7.73;100.00;95080.34;5069504;28;20043;-59
2023/10/04 03:42:23;;;;;;;6.38;2.47;;;;;;;7.72;100.00;95073.28;5068326;28;20883;-59
2023/10/04 03:44:50;;;;;;;4.95;2.42;;;;;;;7.74;100.00;95070.19;5068746;28;20094;-59
2023/10/04 03:47:20;;;;;;;6.47;2.60;;;;;;;7.67;100.00;95068.16;5068843;28;20615;-59
2023/10/04 03:49:49;;;;;;;5.37;2.00;;;;;;;7.71;100.00;95063.53;5069423;28;20142;-59
2023/10/04 03:52:15;;;;;;;5.93;1.95;;;;;;;7.80;100.00;95065.97;5068700;28;20036;-59
2023/10/04 03:54:45;;;;;;;6.30;2.20;;;;;;;7.77;100.00;95061.25;5069537;28;20633;-59
2023/10/04 03:57:12;;;;;;;5.40;2.70;;;;;;;7.67;100.00;95070.09;5068656;28;20052;-59
2023/10/04 03:59:39;;;;;;;4.68;2.20;;;;;;;7.72;100.00;95077.97;5069294;28;20042;-59
2023/10/04 04:02:09;;;;;;;5.33;2.37;;;;;;;7.76;100.00;95067.88;5067092;28;20070;-59
2023/10/04 04:04:35;;;;;;;4.10;2.30;;;;;;;7.73;100.00;95061.22;5069078;28;20101;-59
2023/10/04 04:07:02;;;;;;;7.95;2.53;;;;;;;7.65;100.00;95066.94;5068429;28;20407;-59
2023/10/04 04:09:29;;;;;;;5.95;2.10;;;;;;;7.68;100.00;95064.25;5069059;28;20047;-59
2023/10/04 04:11:56;;;;;;;6.72;2.85;;;;;;;7.62;100.00;95075.88;5068502;28;20412;-60
2023/10/04 04:14:23;;;;;;;6.47;2.70;;;;;;;7.59;100.00;95071.94;5068791;28;20044;-60
2023/10/04 04:16:51;;;;;;;6.18;2.22;;;;;;;7.60;100.00;95079.75;5069331;28;20036;-60
2023/10/04 04:19:22;;;;;;;4.45;2.35;;;;;;;7.56;100.00;95075.38;5067900;28;20643;-59
2023/10/04 04:21:49;;;;;;;3.90;2.30;;;;;;;7.49;100.00;95073.34;5069017;28;20312;-59
2023/10/04 04:24:16;;;;;;;4.28;2.20;;;;;;;7.44;100.00;95065.44;5068218;28;20036;-59
2023/10/04 04:26:42;;;;;;;4.70;2.13;;;;;;;7.39;100.00;95068.50;5069002;28;20054;-59
2023/10/04 04:29:09;;;;;;;4.22;2.47;;;;;;;7.28;100.00;95068.31;5057904;28;20059;-59
2023/10/04 04:31:36;;;;;;;5.43;2.40;;;;;;;7.16;100.00;95066.59;5057203;28;20045;-59
2023/10/04 04:34:07;;;;;;;4.28;2.17;;;;;;;7.16;100.00;95055.69;5047985;28;20154;-59
2023/10/04 04:36:34;;;;;;;5.18;2.60;;;;;;;7.03;100.00;95054.28;5048760;28;20040;-59
2023/10/04 04:39:05;;;;;;;4.60;2.40;;;;;;;7.09;100.00;95058.28;5047954;28;20037;-59
2023/10/04 04:41:35;;;;;;;6.32;2.63;;;;;;;6.99;100.00;95067.09;5048710;28;20049;-59
2023/10/04 04:44:07;;;;;;;4.50;2.30;;;;;;;6.94;100.00;95067.38;5048115;28;20513;-59
2023/10/04 04:46:34;;;;;;;4.43;2.10;;;;;;;6.90;100.00;95064.59;5048869;28;20037;-59
2023/10/04 04:49:01;;;;;;;5.75;2.60;;;;;;;6.62;100.00;95075.81;5048248;28;20033;-58
2023/10/04 04:51:29;;;;;;;11.23;2.60;;;;;;;6.66;100.00;95078.56;5048040;28;20048;-59
2023/10/04 04:53:56;;;;;;;4.15;2.45;;;;;;;6.75;100.00;95084.59;5048059;28;20513;-59
2023/10/04 04:56:24;;;;;;;16.45;2.70;;;;;;;6.55;100.00;95083.84;5051247;28;20041;-59
2023/10/04 04:58:56;;;;;;;4.80;2.30;;;;;;;6.65;100.00;95083.25;5052555;28;20045;-59
2023/10/04 05:01:23;;;;;;;4.50;2.20;;;;;;;6.66;100.00;95093.03;5055527;28;20119;-59
2023/10/04 05:03:51;;;;;;;4.43;2.40;;;;;;;6.60;100.00;95086.28;5038178;28;20099;-59
2023/10/04 05:06:25;;;;;;;17.75;2.67;;;;;;;6.49;100.00;95083.34;5051147;28;21959;-58
2023/10/04 05:08:54;;;;;;;23.50;2.95;;;;;;;6.30;100.00;95088.78;5052001;28;20365;-59
2023/10/04 05:11:21;;;;;;;45.58;4.50;;;;;;;6.24;100.00;95084.78;5070833;28;21787;-59
2023/10/04 05:13:48;;;;;;;27.80;3.45;;;;;;;6.41;100.00;95087.06;5071953;28;20576;-58
2023/10/04 05:16:15;;;;;;;31.97;3.47;;;;;;;6.38;100.00;95088.59;5071463;28;20477;-58
2023/10/04 05:18:43;;;;;;;48.83;3.90;;;;;;;6.50;100.00;95087.66;5072000;28;20393;-59
2023/10/04 05:21:10;;;;;;;93.25;5.30;;;;;;;6.64;100.00;95097.25;5055077;28;20055;-59
2023/10/04 05:23:38;;;;;;;157.10;6.85;;;;;;;6.68;100.00;95093.44;5061234;28;20048;-59
2023/10/04 05:26:05;;;;;;;72.10;4.75;;;;;;;6.79;100.00;95097.13;5072032;28;20056;-59
2023/10/04 05:28:33;;;;;;;92.93;4.87;;;;;;;6.75;100.00;95100.97;5082956;28;20481;-58
2023/10/04 05:31:00;;;;;;;84.00;6.60;;;;;;;6.77;100.00;95098.66;5079642;28;20524;-58
2023/10/04 05:33:27;;;;;;;185.32;7.60;;;;;;;6.66;100.00;95098.47;5078506;28;20041;-59
2023/10/04 05:35:55;;;;;;;28.83;5.05;;;;;;;6.87;100.00;95105.47;5078334;28;20044;-58
2023/10/04 05:38:23;;;;;;;37.33;3.45;;;;;;;6.96;100.00;95108.72;5078644;28;20090;-59
2023/10/04 05:40:50;;;;;;;18.10;3.73;;;;;;;6.96;100.00;95106.81;5078826;28;20112;-59
2023/10/04 05:43:18;;;;;;;8.55;3.90;;;;;;;6.96;100.00;95111.47;5079242;28;20052;-59
2023/10/04 05:45:47;;;;;;;47.08;5.18;;;;;;;6.99;100.00;95108.81;5061221;28;20073;-58
2023/10/04 05:48:18;;;;;;;44.33;4.50;;;;;;;7.00;100.00;95106.84;5062457;28;20063;-59
2023/10/04 05:50:49;;;;;;;19.70;3.83;;;;;;;6.94;100.00;95106.41;5055603;28;20055;-59
2023/10/04 05:53:19;;;;;;;38.77;4.03;;;;;;;7.15;100.00;95116.88;5058992;28;20538;-58
2023/10/04 05:55:48;;;;;;;27.70;4.45;;;;;;;7.27;100.00;95113.19;5056706;28;20078;-59
2023/10/04 05:58:17;;;;;;;18.08;4.20;;;;;;;7.36;100.00;95123.84;5059706;28;20037;-59
2023/10/04 06:00:46;;;;;;;111.43;11.05;;;;;;;7.26;100.00;95113.53;5057621;28;20531;-59
2023/10/04 06:03:13;;;;;;;63.28;15.90;;;;;;;7.33;100.00;95119.91;5059105;28;20079;-59
2023/10/04 06:05:41;;;;;;;40.97;14.37;;;;;;;7.40;100.00;95113.78;5060396;28;20530;-59
2023/10/04 06:08:16;;;;;;;63.90;7.60;;;;;;;7.43;100.00;95107.59;5054119;28;20056;-58
2023/10/04 06:10:43;;;;;;;111.65;5.68;;;;;;;7.28;100.00;95106.56;5059133;28;20040;-59
2023/10/04 06:13:13;;;;;;;16.48;3.50;;;;;;;7.19;100.00;95106.81;5055994;28;20094;-59
2023/10/04 06:15:45;;;;;;;68.85;4.25;;;;;;;6.97;100.00;95102.13;5052229;28;20068;-59
2023/10/04 06:18:14;;;;;;;28.43;3.10;;;;;;;6.94;100.00;95100.13;5058086;28;20061;-59
2023/10/04 06:20:41;;;;;;;16.17;3.25;;;;;;;7.31;100.00;95102.31;5060702;28;20048;-59
2023/10/04 06:23:10;;;;;;;16.92;3.30;;;;;;;7.68;100.00;95102.50;5052083;28;20107;-59
2023/10/04 06:25:41;;;;;;;24.30;3.53;;;;;;;7.66;100.00;95104.03;5058559;28;20397;-59
2023/10/04 06:28:09;;;;;;;22.98;3.50;;;;;;;7.49;100.00;95099.88;5062198;28;20051;-59
2023/10/04 06:30:37;;;;;;;10.43;3.10;;;;;;;7.64;100.00;95106.34;5056196;28;20545;-59
2023/10/04 06:33:07;;;;;;;26.95;3.95;;;;;;;7.85;100.00;95103.13;5059458;28;20059;-59
2023/10/04 06:35:34;;;;;;;37.80;4.00;;;;;;;7.87;100.00;95117.19;5060049;28;20048;-61
2023/10/04 06:38:03;;;;;;;32.30;3.30;;;;;;;7.88;100.00;95116.06;5052932;28;20063;-59
2023/10/04 06:40:33;;;;;;;41.85;4.05;;;;;;;7.62;100.00;95105.91;5054313;28;20040;-59
2023/10/04 06:43:04;;;;;;;17.47;3.10;;;;;;;8.19;100.00;95106.72;5045541;28;20125;-59
2023/10/04 06:45:32;;;;;;;16.23;2.80;;;;;;;8.71;100.00;95099.56;5043158;28;20036;-59
2023/10/04 06:48:01;;;;;;;13.00;2.90;;;;;;;8.91;100.00;95104.84;5065475;28;20049;-59
2023/10/04 06:50:32;;;;;;;15.68;2.60;;;;;;;9.11;100.00;95105.44;5050809;28;20037;-59
2023/10/04 06:53:01;;;;;;;20.13;2.47;;;;;;;8.50;100.00;95104.78;5050371;28;20059;-59
2023/10/04 06:55:32;;;;;;;8.90;2.30;;;;;;;8.68;100.00;95111.25;5037995;28;20055;-59
2023/10/04 06:58:00;;;;;;;22.35;2.92;;;;;;;8.74;100.00;95108.97;5050289;28;20379;-59
2023/10/04 07:00:36;;;;;;;12.35;2.45;;;;;;;9.24;100.00;95106.72;5050652;28;20493;-60
2023/10/04 07:03:04;;;;;;;13.40;2.72;;;;;;;9.71;100.00;95099.66;5050177;28;20098;-60
2023/10/04 07:05:39;;;;;;;17.90;2.78;;;;;;;10.16;100.00;95094.88;5050676;28;20045;-59
2023/10/04 07:08:11;;;;;;;10.37;2.60;;;;;;;10.47;100.00;95097.38;5049980;28;20086;-60
2023/10/04 07:10:38;;;;;;;11.60;2.35;;;;;;;10.92;100.00;95095.16;5050778;28;20045;-59
2023/10/04 07:13:06;;;;;;;18.17;2.55;;;;;;;11.79;100.00;95094.03;5049708;28;20409;-60
2023/10/04 07:15:39;;;;;;;8.18;2.10;;;;;;;12.43;100.00;95095.91;5046458;28;20056;-58
2023/10/04 07:18:09;;;;;;;9.38;2.58;;;;;;;14.39;100.00;95090.19;5030295;28;20037;-58
2023/10/04 07:20:37;;;;;;;6.50;2.07;;;;;;;14.71;100.00;95086.31;5042785;28;20041;-59
2023/10/04 07:23:07;;;;;;;5.95;2.33;;;;;;;14.05;100.00;95089.38;5049743;28;20056;-59
2023/10/04 07:25:39;;;;;;;9.82;2.50;;;;;;;14.51;100.00;95099.16;5050341;28;20045;-60
2023/10/04 07:28:09;;;;;;;6.18;2.28;;;;;;;15.43;100.00;95093.59;5049828;28;20098;-60
2023/10/04 07:30:38;;;;;;;5.20;2.60;;;;;;;16.92;100.00;95093.38;5050348;28;20486;-60
2023/10/04 07:33:05;;;;;;;12.03;2.50;;;;;;;17.99;93.58;95092.16;5036810;28;20033;-59
2023/10/04 07:35:34;;;;;;;7.30;2.50;;;;;;;18.99;84.76;95097.81;5050264;28;20064;-59
2023/10/04 07:38:04;;;;;;;3.88;2.00;;;;;;;21.24;74.97;95099.19;5049119;28;20047;-59
2023/10/04 07:40:32;;;;;;;3.53;2.03;;;;;;;21.81;71.21;95102.59;5050263;28;20041;-60
2023/10/04 07:42:59;;;;;;;4.18;2.10;;;;;;;23.69;58.05;95101.69;5049408;28;20041;-60
2023/10/04 07:45:28;;;;;;;3.93;2.10;;;;;;;23.34;54.87;95093.69;5065129;28;20045;-60
2023/10/04 07:47:56;;;;;;;3.70;2.30;;;;;;;22.05;60.54;95104.81;5049548;28;20033;-60
2023/10/04 07:50:24;;;;;;;3.70;2.30;;;;;;;23.41;59.08;95096.16;5049781;28;20043;-60
2023/10/04 07:52:54;;;;;;;3.30;1.88;;;;;;;23.04;58.68;95101.06;5049968;28;20041;-60
2023/10/04 07:55:22;;;;;;;5.00;2.10;;;;;;;22.72;56.88;95098.41;5056592;28;20743;-60
2023/10/04 07:57:58;;;;;;;4.43;2.13;;;;;;;21.49;63.40;95115.81;5049600;28;20047;-60
2023/10/04 08:00:26;;;;;;;3.80;2.20;;;;;;;23.12;59.77;95105.88;5048686;28;20647;-60
2023/10/04 08:02:53;;;;;;;3.55;1.95;;;;;;;25.37;52.02;95106.47;5049061;28;20486;-59
2023/10/04 08:05:21;;;;;;;3.50;2.00;;;;;;;25.13;49.81;95114.97;5049417;28;20047;-60
2023/10/04 08:07:49;;;;;;;3.83;2.10;;;;;;;27.02;46.21;95102.72;5049046;28;20036;-60
2023/10/04 08:10:17;;;;;;;4.50;2.40;;;;;;;27.78;43.93;95103.72;5049039;28;20045;-61
2023/10/04 08:12:45;;;;;;;5.18;3.38;;;;;;;26.29;44.35;95098.97;5049063;28;20417;-60
2023/10/04 08:15:19;;;;;;;7.03;2.92;;;;;;;24.88;44.32;95100.19;5047819;28;20574;-60
2023/10/04 08:17:48;;;;;;;4.88;2.45;;;;;;;24.58;49.10;95104.97;5031009;28;20045;-60
2023/10/04 08:20:15;;;;;;;4.45;2.10;;;;;;;27.34;43.24;95096.41;5040811;28;20037;-60
2023/10/04 08:22:44;;;;;;;5.53;2.07;;;;;;;25.76;47.03;95088.72;5049217;28;20072;-60
2023/10/04 08:25:13;;;;;;;3.53;1.65;;;;;;;27.97;41.57;95090.03;5048996;28;20375;-61
2023/10/04 08:27:40;;;;;;;4.63;1.80;;;;;;;29.13;37.72;95084.72;5049045;28;20516;-60
2023/10/04 08:30:12;;;;;;;4.20;1.70;;;;;;;28.03;37.81;95088.00;5048542;28;20504;-60
2023/10/04 08:32:41;;;;;;;5.10;1.67;;;;;;;28.69;37.82;95083.25;5049297;28;20041;-61
2023/10/04 08:35:09;;;;;;;4.50;1.77;;;;;;;28.67;36.77;95080.97;5048694;28;20057;-61
2023/10/04 08:37:35;;;;;;;3.65;1.55;;;;;;;30.38;34.69;95082.69;5049008;28;20047;-61
2023/10/04 08:40:02;;;;;;;3.97;1.90;;;;;;;27.49;36.35;95083.75;5048228;28;20041;-61
2023/10/04 08:42:30;;;;;;;3.67;1.70;;;;;;;27.19;37.10;95080.34;5048842;28;20068;-61
2023/10/04 08:44:57;;;;;;;3.17;1.55;;;;;;;22.04;47.22;95086.50;5048368;28;20037;-60
2023/10/04 08:47:24;;;;;;;5.33;1.70;;;;;;;23.67;48.50;95085.34;5048723;28;20045;-60
2023/10/04 08:49:55;;;;;;;4.95;1.67;;;;;;;25.76;44.02;95078.25;5049009;28;20555;-60
2023/10/04 08:52:35;;;;;;;3.55;1.70;;;;;;;23.02;48.39;95076.34;5048089;28;20095;-61
2023/10/04 08:55:07;;;;;;;5.40;1.80;;;;;;;22.16;54.80;95074.41;5048588;28;20474;-61
2023/10/04 08:57:41;;;;;;;3.55;1.60;;;;;;;27.43;40.53;95065.25;5049019;28;20044;-61
2023/10/04 09:00:17;;;;;;;4.80;1.90;;;;;;;23.63;44.48;95062.31;5048273;28;20049;-61
2023/10/04 09:02:56;;;;;;;4.85;1.80;;;;;;;22.97;50.20;95057.34;5048489;28;20098;-61
2023/10/04 09:05:23;;;;;;;4.18;2.08;;;;;;;21.47;53.86;95062.44;5048505;28;20065;-61
2023/10/04 09:07:51;;;;;;;5.97;2.00;;;;;;;22.05;52.13;95046.13;5048876;28;20056;-61
2023/10/04 09:10:19;;;;;;;5.13;2.30;;;;;;;20.05;56.96;95060.75;5048154;28;20090;-60
2023/10/04 09:12:47;;;;;;;4.23;1.77;;;;;;;21.83;55.52;95058.22;5048858;28;20118;-60
2023/10/04 09:15:25;;;;;;;4.30;1.95;;;;;;;19.66;59.88;95063.59;5047874;28;20267;-61
2023/10/04 09:17:57;;;;;;;5.15;2.05;;;;;;;20.52;60.43;95057.13;5048799;28;20409;-61
2023/10/04 09:20:36;;;;;;;5.97;2.10;;;;;;;19.88;64.15;95049.78;5054931;28;20913;-61
2023/10/04 09:23:22;;;;;;;4.35;1.95;;;;;;;22.94;54.55;95041.50;5048440;28;20559;-60
2023/10/04 09:25:53;;;;;;;5.23;1.80;;;;;;;26.07;42.87;95037.56;5036306;28;20037;-61
2023/10/04 09:28:36;;;;;;;3.90;1.60;;;;;;;25.92;42.19;95048.88;5051656;28;20879;-61
2023/10/04 09:31:12;;;;;;;3.75;1.67;;;;;;;27.43;39.49;95032.19;5067893;28;20405;-61
2023/10/04 09:33:40;;;;;;;3.80;1.70;;;;;;;25.56;39.67;95039.59;5068567;28;20054;-61
2023/10/04 09:36:10;;;;;;;4.20;1.85;;;;;;;22.90;47.51;95038.09;5068050;28;20057;-61
2023/10/04 09:38:39;;;;;;;5.50;1.90;;;;;;;24.16;45.96;95032.91;5068289;28;20485;-61
2023/10/04 09:41:09;;;;;;;4.28;1.80;;;;;;;21.83;49.84;95035.84;5067620;28;20412;-61
2023/10/04 09:43:39;;;;;;;4.35;1.70;;;;;;;23.79;46.09;95032.38;5061599;28;20396;-60
2023/10/04 09:46:09;;;;;;;4.68;1.83;;;;;;;21.58;51.43;95056.41;5051797;28;20059;-60
2023/10/04 09:48:41;;;;;;;5.15;1.90;;;;;;;21.35;52.15;95050.09;5068358;28;20040;-60
2023/10/04 09:51:09;;;;;;;5.70;1.53;;;;;;;21.20;53.14;95049.06;5071643;28;20036;-60
2023/10/04 09:53:41;;;;;;;5.57;2.08;;;;;;;21.54;52.07;95042.56;5071573;28;20040;-60
2023/10/04 09:56:13;;;;;;;5.70;2.08;;;;;;;20.62;54.67;95042.06;5071363;28;20043;-59
2023/10/04 09:58:49;;;;;;;4.60;1.80;;;;;;;20.64;56.73;95036.03;5071708;28;20040;-60
2023/10/04 10:01:19;;;;;;;4.30;1.85;;;;;;;20.41;57.27;95040.03;5071268;28;20040;-59
2023/10/04 10:04:16;;;;;;;3.77;1.67;;;;;;;21.64;53.67;95034.25;5071906;28;20113;-60
2023/10/04 10:07:06;;;;;;;3.38;1.60;;;;;;;20.31;56.56;95034.38;5070987;28;20701;-59
2023/10/04 10:09:35;;;;;;;4.57;1.50;;;;;;;23.41;49.56;95028.16;5069243;28;20039;-61
2023/10/04 10:12:22;;;;;;;3.80;1.73;;;;;;;23.55;46.88;95027.47;5050815;28;21476;-61
2023/10/04 10:14:49;;;;;;;4.72;1.60;;;;;;;26.21;42.19;95011.38;5051417;28;20037;-61
2023/10/04 10:17:19;;;;;;;4.63;1.70;;;;;;;27.67;37.03;95025.44;5038484;28;20053;-61
2023/10/04 10:19:46;;;;;;;5.32;1.80;;;;;;;27.78;37.07;95024.72;5043925;28;20405;-61
2023/10/04 10:22:16;;;;;;;4.30;1.80;;;;;;;26.69;37.67;95027.09;5061700;28;20076;-61
2023/10/04 10:25:10;;;;;;;3.92;1.77;;;;;;;26.41;38.66;95024.69;5071385;28;20036;-61
2023/10/04 10:27:37;;;;;;;4.20;1.80;;;;;;;23.56;43.12;95039.44;5054857;28;20669;-62
2023/10/04 10:30:12;;;;;;;4.00;1.57;;;;;;;25.45;39.68;95031.00;5070865;28;20105;-60
2023/10/04 10:32:55;;;;;;;4.38;1.70;;;;;;;28.32;35.80;95026.88;5071401;28;20036;-62
2023/10/04 10:35:48;;;;;;;3.25;1.60;;;;;;;29.24;34.04;95019.72;5057776;28;20651;-61
2023/10/04 10:38:27;;;;;;;4.53;1.80;;;;;;;28.26;34.59;95021.19;5070560;28;20042;-59
2023/10/04 10:40:53;;;;;;;3.30;1.65;;;;;;;26.92;34.86;95013.22;5070714;28;20098;-60
2023/10/04 10:43:20;;;;;;;4.23;1.80;;;;;;;26.36;37.74;95011.34;5070982;28;20047;-60
2023/10/04 10:45:47;;;;;;;4.35;1.60;;;;;;;25.05;40.24;95021.09;5071258;28;20036;-60
2023/10/04 10:48:14;;;;;;;3.95;1.75;;;;;;;26.71;39.35;95007.66;5070210;28;20048;-60
2023/10/04 10:50:41;;;;;;;4.00;1.60;;;;;;;28.03;36.60;95009.78;5071199;28;20107;-60
2023/10/04 10:53:10;;;;;;;3.42;1.65;;;;;;;27.85;34.68;95002.47;5070021;28;20432;-60
2023/10/04 10:55:41;;;;;;;4.10;1.80;;;;;;;22.36;44.16;95011.72;5071027;28;20408;-59
2023/10/04 10:58:08;;;;;;;3.88;1.70;;;;;;;25.84;39.87;95011.13;5070413;28;20047;-60
2023/10/04 11:00:35;;;;;;;4.20;1.90;;;;;;;26.46;37.55;95000.69;5070563;28;20085;-60
2023/10/04 11:03:05;;;;;;;3.83;1.90;;;;;;;24.25;41.01;95004.81;5070383;28;20047;-60
2023/10/04 11:05:32;;;;;;;4.10;1.85;;;;;;;24.26;40.71;94997.16;5070492;28;20040;-60
2023/10/04 11:07:59;;;;;;;4.33;1.77;;;;;;;25.86;37.63;94995.31;5070043;28;20414;-59
2023/10/04 11:10:27;;;;;;;4.85;2.20;;;;;;;22.56;41.58;95000.81;5070305;28;20047;-61
2023/10/04 11:12:55;;;;;;;4.50;1.90;;;;;;;21.46;47.04;94999.41;5070194;28;20036;-61
2023/10/04 11:15:27;;;;;;;4.65;1.90;;;;;;;24.59;40.91;94997.06;5070159;28;20048;-60
2023/10/04 11:17:54;;;;;;;4.07;1.80;;;;;;;26.20;37.23;94978.13;5051691;28;20268;-61
2023/10/04 11:20:21;;;;;;;4.47;1.97;;;;;;;24.54;40.25;94985.75;5057087;28;20067;-61
2023/10/04 11:22:49;;;;;;;5.70;1.77;;;;;;;24.62;38.69;94992.53;5085711;28;20036;-61
2023/10/04 11:25:18;;;;;;;6.50;1.80;;;;;;;22.35;43.81;94991.34;5069740;28;20493;-61
2023/10/04 11:27:47;;;;;;;4.35;1.92;;;;;;;23.57;41.25;94990.59;5070270;28;20055;-61
2023/10/04 11:30:17;;;;;;;4.95;1.90;;;;;;;24.11;40.39;94980.31;5069625;28;20453;-60
2023/10/04 11:32:46;;;;;;;4.60;1.90;;;;;;;24.48;40.11;94980.00;5070218;28;20066;-59
2023/10/04 11:35:18;;;;;;;6.32;1.80;;;;;;;23.09;42.49;94988.44;5066348;28;20051;-60
2023/10/04 11:37:48;;;;;;;16.95;11.30;;;;;;;22.13;44.09;94983.88;5069915;28;20040;-60
2023/10/04 11:40:19;;;;;;;4.53;2.53;;;;;;;21.89;45.17;94983.69;5069352;28;20043;-59